Time;durP1;ratioP1;P1;durP2;ratioP2;P2;SDS_P1;SDS_P2;PMS_P1;PMS_P2;Temp;Humidity;BMP_temperature;BMP_pressure;BME280_temperature;BME280_humidity;BME280_pressure;Samples;Min_cycle;Max_cycle;Signal;HPM_P1;HPM_P2
2024/01/30 00:01:41;;;;;;;24.67;10.88;;;;;;;;;;5046459;28;20005;-56
2024/01/30 00:04:06;;;;;;;26.83;10.70;;;;;;;;;;5040252;28;20120;-59
2024/01/30 00:06:32;;;;;;;24.52;11.02;;;;;;;;;;5045590;28;20033;-57
2024/01/30 00:08:57;;;;;;;23.30;11.20;;;;;;;;;;5032249;28;20037;-57
2024/01/30 00:11:22;;;;;;;24.92;10.40;;;;;;;;;;5028761;28;20480;-56
2024/01/30 00:13:47;;;;;;;22.83;10.37;;;;;;;;;;5025281;28;20037;-56
2024/01/30 00:16:23;;;;;;;23.93;10.47;;;;;;;;;;5032987;28;20020;-57
2024/01/30 00:18:49;;;;;;;24.88;10.13;;;;;;;;;;5019536;28;20037;-55
2024/01/30 00:21:14;;;;;;;24.83;10.67;;;;;;;;;;5028520;28;20026;-57
2024/01/30 00:23:40;;;;;;;22.92;10.13;;;;;;;;;;5021939;28;20446;-56
2024/01/30 00:26:06;;;;;;;25.05;10.52;;;;;;;;;;5028362;28;20036;-57
2024/01/30 00:28:31;;;;;;;21.90;10.65;;;;;;;;;;5032091;28;20036;-58
2024/01/30 00:30:56;;;;;;;25.60;10.07;;;;;;;;;;5026782;28;20025;-57
2024/01/30 00:33:21;;;;;;;25.02;10.85;;;;;;;;;;5024873;28;20029;-57
2024/01/30 00:35:46;;;;;;;24.58;10.80;;;;;;;;;;5015236;28;20440;-56
2024/01/30 00:38:13;;;;;;;24.88;10.55;;;;;;;;;;5020758;28;20076;-56
2024/01/30 00:40:38;;;;;;;23.35;10.48;;;;;;;;;;5029506;28;20029;-56
2024/01/30 00:43:03;;;;;;;23.48;10.20;;;;;;;;;;5026781;28;20083;-57
2024/01/30 00:45:28;;;;;;;23.40;10.27;;;;;;;;;;5021997;28;20490;-56
2024/01/30 00:47:56;;;;;;;27.10;10.75;;;;;;;;;;5015079;28;20086;-56
2024/01/30 00:50:22;;;;;;;22.80;10.52;;;;;;;;;;5025615;28;20029;-56
2024/01/30 00:52:47;;;;;;;23.02;10.73;;;;;;;;;;5027556;28;20492;-56
2024/01/30 00:55:12;;;;;;;21.77;10.13;;;;;;;;;;5026576;28;20033;-56
2024/01/30 00:57:38;;;;;;;21.90;9.70;;;;;;;;;;5024906;28;20026;-57
2024/01/30 01:00:03;;;;;;;21.73;9.93;;;;;;;;;;5033106;28;20029;-55
2024/01/30 01:02:28;;;;;;;23.65;9.85;;;;;;;;;;5018971;28;20021;-55
2024/01/30 01:04:53;;;;;;;23.70;10.70;;;;;;;;;;5028606;28;20040;-57
2024/01/30 01:07:18;;;;;;;21.83;10.07;;;;;;;;;;5018925;28;20452;-57
2024/01/30 01:09:44;;;;;;;23.10;10.32;;;;;;;;;;5015235;28;20032;-56
2024/01/30 01:12:09;;;;;;;19.63;8.77;;;;;;;;;;5027909;28;20029;-56
2024/01/30 01:14:34;;;;;;;19.80;9.23;;;;;;;;;;5028181;28;20040;-56
2024/01/30 01:16:59;;;;;;;22.02;10.00;;;;;;;;;;5023341;28;20048;-56
2024/01/30 01:19:24;;;;;;;21.50;9.02;;;;;;;;;;5017064;28;20034;-56
2024/01/30 01:21:49;;;;;;;19.98;9.18;;;;;;;;;;5020687;28;20025;-56
2024/01/30 01:24:14;;;;;;;23.80;9.50;;;;;;;;;;5032407;28;20561;-57
2024/01/30 01:26:40;;;;;;;20.33;9.55;;;;;;;;;;5020277;28;20092;-56
2024/01/30 01:29:09;;;;;;;23.15;9.30;;;;;;;;;;5032271;28;20027;-56
2024/01/30 01:31:35;;;;;;;21.63;9.80;;;;;;;;;;5029947;28;20021;-55
2024/01/30 01:34:00;;;;;;;19.85;9.45;;;;;;;;;;5030285;28;20104;-56
2024/01/30 01:36:26;;;;;;;20.25;9.32;;;;;;;;;;5028826;28;20044;-55
2024/01/30 01:38:51;;;;;;;19.93;8.33;;;;;;;;;;5032836;28;20396;-56
2024/01/30 01:41:16;;;;;;;25.30;9.60;;;;;;;;;;5020164;28;20052;-56
2024/01/30 01:43:41;;;;;;;22.30;9.40;;;;;;;;;;5031566;28;20084;-57
2024/01/30 01:46:07;;;;;;;23.30;9.73;;;;;;;;;;5032686;28;20021;-56
2024/01/30 01:48:32;;;;;;;19.77;9.18;;;;;;;;;;5030501;28;20021;-56
2024/01/30 01:50:58;;;;;;;22.30;9.87;;;;;;;;;;5022625;28;20029;-56
2024/01/30 01:53:23;;;;;;;21.77;9.70;;;;;;;;;;5014279;28;20057;-55
2024/01/30 01:55:49;;;;;;;19.93;9.10;;;;;;;;;;5021707;28;20362;-57
2024/01/30 01:58:15;;;;;;;19.40;9.20;;;;;;;;;;5026890;28;20021;-57
2024/01/30 02:00:41;;;;;;;23.10;9.25;;;;;;;;;;5017820;28;20022;-56
2024/01/30 02:03:08;;;;;;;19.23;9.70;;;;;;;;;;5027049;28;20113;-55
2024/01/30 02:05:33;;;;;;;26.08;10.02;;;;;;;;;;5036252;28;20029;-56
2024/01/30 02:07:58;;;;;;;20.30;8.43;;;;;;;;;;5037141;28;20075;-62
2024/01/30 02:10:24;;;;;;;26.20;9.50;;;;;;;;;;5022308;28;20394;-57
2024/01/30 02:12:49;;;;;;;21.90;9.50;;;;;;;;;;5031085;28;20030;-56
2024/01/30 02:15:15;;;;;;;21.17;9.45;;;;;;;;;;5031986;28;20167;-56
2024/01/30 02:17:40;;;;;;;21.73;9.27;;;;;;;;;;5018723;28;20029;-55
2024/01/30 02:20:05;;;;;;;21.88;9.75;;;;;;;;;;5017722;28;20533;-55
2024/01/30 02:22:32;;;;;;;22.95;9.50;;;;;;;;;;5030679;28;20029;-56
2024/01/30 02:24:57;;;;;;;24.35;9.88;;;;;;;;;;5030019;28;20034;-56
2024/01/30 02:27:22;;;;;;;24.02;9.68;;;;;;;;;;5020418;28;20160;-56
2024/01/30 02:29:47;;;;;;;22.00;9.70;;;;;;;;;;5031638;28;20029;-56
2024/01/30 02:32:14;;;;;;;23.00;9.35;;;;;;;;;;5028779;28;20026;-56
2024/01/30 02:34:40;;;;;;;21.75;9.23;;;;;;;;;;5021376;28;20022;-57
2024/01/30 02:37:05;;;;;;;21.10;9.25;;;;;;;;;;5027220;28;20026;-56
2024/01/30 02:39:31;;;;;;;21.10;9.43;;;;;;;;;;5021060;28;20014;-56
2024/01/30 02:41:57;;;;;;;23.00;9.18;;;;;;;;;;5031745;28;20037;-56
2024/01/30 02:44:22;;;;;;;22.85;9.20;;;;;;;;;;5025446;28;20481;-57
2024/01/30 02:46:47;;;;;;;25.77;9.32;;;;;;;;;;5030769;28;20096;-56
2024/01/30 02:49:13;;;;;;;23.35;10.20;;;;;;;;;;5030023;28;20053;-57
2024/01/30 02:51:38;;;;;;;23.27;9.90;;;;;;;;;;5044970;28;20032;-56
2024/01/30 02:54:03;;;;;;;24.37;10.47;;;;;;;;;;5039498;28;20034;-56
2024/01/30 02:56:28;;;;;;;24.13;9.77;;;;;;;;;;5026243;28;20021;-58
2024/01/30 02:58:53;;;;;;;20.85;9.63;;;;;;;;;;5033326;28;20022;-56
2024/01/30 03:01:18;;;;;;;24.97;9.40;;;;;;;;;;5036265;28;20034;-56
2024/01/30 03:03:43;;;;;;;22.83;8.80;;;;;;;;;;5032815;28;20038;-56
2024/01/30 03:06:09;;;;;;;24.60;9.73;;;;;;;;;;5038602;28;20036;-56
2024/01/30 03:08:35;;;;;;;24.87;9.33;;;;;;;;;;5054846;28;20031;-61
2024/01/30 03:11:00;;;;;;;24.90;10.40;;;;;;;;;;5048545;28;20025;-57
2024/01/30 03:13:25;;;;;;;25.80;9.48;;;;;;;;;;5029473;28;20096;-57
2024/01/30 03:15:50;;;;;;;28.08;10.00;;;;;;;;;;5021288;28;20029;-56
2024/01/30 03:18:16;;;;;;;24.60;10.20;;;;;;;;;;5029860;28;20051;-56
2024/01/30 03:20:41;;;;;;;22.80;9.85;;;;;;;;;;5012078;28;20105;-56
2024/01/30 03:23:06;;;;;;;23.50;9.75;;;;;;;;;;5023108;28;20521;-56
2024/01/30 03:25:32;;;;;;;27.42;10.35;;;;;;;;;;5013128;28;20044;-58
2024/01/30 03:27:57;;;;;;;24.03;9.43;;;;;;;;;;5022580;28;20074;-57
2024/01/30 03:30:22;;;;;;;24.15;10.07;;;;;;;;;;5019028;28;20018;-57
2024/01/30 03:32:47;;;;;;;25.37;9.33;;;;;;;;;;5025746;28;20028;-57
2024/01/30 03:35:12;;;;;;;25.13;10.32;;;;;;;;;;5014783;28;20081;-57
2024/01/30 03:37:37;;;;;;;27.07;10.60;;;;;;;;;;5016479;28;20033;-56
2024/01/30 03:40:03;;;;;;;23.23;10.35;;;;;;;;;;5030625;28;20120;-55
2024/01/30 03:42:28;;;;;;;21.85;9.80;;;;;;;;;;5030746;28;20032;-56
2024/01/30 03:44:54;;;;;;;23.00;10.33;;;;;;;;;;5029512;28;20040;-56
2024/01/30 03:47:20;;;;;;;25.33;10.57;;;;;;;;;;5027355;28;20057;-56
2024/01/30 03:49:45;;;;;;;22.55;10.10;;;;;;;;;;5020951;28;20482;-57
2024/01/30 03:52:10;;;;;;;25.30;9.63;;;;;;;;;;5027595;28;20013;-56
2024/01/30 03:54:35;;;;;;;25.30;9.67;;;;;;;;;;5025696;28;20036;-57
2024/01/30 03:57:00;;;;;;;23.43;9.67;;;;;;;;;;5034362;28;20112;-58
2024/01/30 03:59:26;;;;;;;28.23;10.85;;;;;;;;;;5031727;28;20477;-55
2024/01/30 04:01:51;;;;;;;24.73;10.03;;;;;;;;;;5018126;28;20033;-56
2024/01/30 04:04:17;;;;;;;24.77;9.43;;;;;;;;;;5036102;28;20736;-56
2024/01/30 04:06:42;;;;;;;24.13;10.57;;;;;;;;;;5037415;28;20464;-58
2024/01/30 04:09:07;;;;;;;27.33;10.48;;;;;;;;;;5043235;28;20022;-57
2024/01/30 04:11:32;;;;;;;23.27;9.65;;;;;;;;;;5033187;28;20394;-56
2024/01/30 04:13:58;;;;;;;26.92;10.55;;;;;;;;;;5029059;28;20044;-56
2024/01/30 04:16:23;;;;;;;25.07;10.10;;;;;;;;;;5033966;28;20412;-57
2024/01/30 04:18:48;;;;;;;24.52;10.13;;;;;;;;;;5035202;28;20029;-56
2024/01/30 04:21:13;;;;;;;23.77;9.63;;;;;;;;;;5034157;28;20022;-58
2024/01/30 04:23:40;;;;;;;24.88;10.57;;;;;;;;;;5031012;28;20079;-56
2024/01/30 04:26:05;;;;;;;;;;;;;;;;;;5034020;28;20053;-57
2024/01/30 04:28:30;;;;;;;25.48;9.80;;;;;;;;;;5034284;28;19936;-56
2024/01/30 04:30:55;;;;;;;23.90;10.30;;;;;;;;;;5033951;28;20028;-57
2024/01/30 04:33:21;;;;;;;24.52;10.60;;;;;;;;;;5032461;28;20025;-59
2024/01/30 04:35:46;;;;;;;24.80;10.80;;;;;;;;;;5033860;28;20033;-56
2024/01/30 04:38:11;;;;;;;21.10;8.73;;;;;;;;;;5031760;28;20017;-57
2024/01/30 04:40:36;;;;;;;24.27;11.05;;;;;;;;;;5032430;28;20034;-57
2024/01/30 04:43:01;;;;;;;24.50;10.48;;;;;;;;;;5032220;28;20120;-55
2024/01/30 04:45:27;;;;;;;26.08;10.85;;;;;;;;;;5033742;28;20037;-56
2024/01/30 04:47:52;;;;;;;22.45;10.20;;;;;;;;;;5033774;28;20057;-57
2024/01/30 04:50:17;;;;;;;24.30;9.67;;;;;;;;;;5034144;28;20025;-56
2024/01/30 04:52:42;;;;;;;30.87;11.07;;;;;;;;;;5033907;28;20095;-56
2024/01/30 04:55:07;;;;;;;24.33;10.47;;;;;;;;;;5030234;28;20022;-56
2024/01/30 04:57:33;;;;;;;28.98;10.95;;;;;;;;;;5033189;28;20404;-56
2024/01/30 04:59:58;;;;;;;23.75;9.40;;;;;;;;;;5031855;28;20375;-56
2024/01/30 05:02:24;;;;;;;26.60;10.73;;;;;;;;;;5031540;28;20037;-56
2024/01/30 05:04:49;;;;;;;27.00;10.82;;;;;;;;;;5031095;28;20516;-56
2024/01/30 05:07:14;;;;;;;26.38;10.70;;;;;;;;;;5022386;28;20072;-57
2024/01/30 05:09:39;;;;;;;24.85;10.65;;;;;;;;;;5033134;28;20084;-57
2024/01/30 05:12:04;;;;;;;24.63;10.55;;;;;;;;;;5032158;28;20024;-56
2024/01/30 05:14:30;;;;;;;28.30;10.75;;;;;;;;;;5025627;28;20065;-56
2024/01/30 05:16:55;;;;;;;25.07;10.63;;;;;;;;;;5032044;28;20022;-56
2024/01/30 05:19:21;;;;;;;25.25;10.02;;;;;;;;;;5033531;28;20044;-57
2024/01/30 05:21:46;;;;;;;26.23;10.60;;;;;;;;;;5028831;28;20025;-56
2024/01/30 05:24:11;;;;;;;25.83;10.20;;;;;;;;;;5030795;28;20030;-56
2024/01/30 05:26:36;;;;;;;25.23;10.67;;;;;;;;;;5021167;28;20018;-57
2024/01/30 05:29:02;;;;;;;24.08;9.80;;;;;;;;;;5033937;28;20444;-57
2024/01/30 05:31:27;;;;;;;24.40;10.20;;;;;;;;;;5031722;28;20489;-56
2024/01/30 05:33:52;;;;;;;24.30;10.63;;;;;;;;;;5030027;28;20500;-56
2024/01/30 05:36:17;;;;;;;24.75;10.80;;;;;;;;;;5019370;28;20087;-56
2024/01/30 05:38:43;;;;;;;24.60;9.48;;;;;;;;;;5025024;28;20453;-56
2024/01/30 05:41:08;;;;;;;27.23;10.30;;;;;;;;;;5024136;28;20055;-56
2024/01/30 05:43:33;;;;;;;26.50;10.70;;;;;;;;;;5028522;28;20029;-57
2024/01/30 05:45:59;;;;;;;24.07;10.17;;;;;;;;;;5030069;28;20033;-57
2024/01/30 05:48:25;;;;;;;23.97;10.73;;;;;;;;;;5028587;28;20017;-58
2024/01/30 05:50:50;;;;;;;21.83;9.55;;;;;;;;;;5024336;28;20189;-56
2024/01/30 05:53:15;;;;;;;30.10;11.95;;;;;;;;;;5022637;28;20116;-56
2024/01/30 05:55:41;;;;;;;25.57;10.23;;;;;;;;;;5021474;28;20046;-57
2024/01/30 05:58:06;;;;;;;27.10;10.00;;;;;;;;;;5025704;28;20102;-56
2024/01/30 06:00:31;;;;;;;23.60;9.45;;;;;;;;;;5020752;28;20022;-57
2024/01/30 06:02:56;;;;;;;25.20;10.13;;;;;;;;;;5017879;28;20038;-56
2024/01/30 06:05:21;;;;;;;25.15;10.70;;;;;;;;;;5016894;28;20034;-56
2024/01/30 06:07:46;;;;;;;25.63;10.07;;;;;;;;;;5025135;28;20025;-57
2024/01/30 06:10:11;;;;;;;23.40;10.00;;;;;;;;;;5029083;28;20097;-57
2024/01/30 06:12:37;;;;;;;26.42;10.52;;;;;;;;;;5026973;28;20033;-57
2024/01/30 06:15:03;;;;;;;26.38;10.73;;;;;;;;;;5024459;28;20608;-57
2024/01/30 06:17:28;;;;;;;29.05;10.57;;;;;;;;;;5031658;28;20036;-56
2024/01/30 06:19:53;;;;;;;22.20;9.50;;;;;;;;;;5024468;28;20393;-58
2024/01/30 06:22:18;;;;;;;23.98;10.15;;;;;;;;;;5023393;28;20042;-57
2024/01/30 06:24:44;;;;;;;26.53;10.43;;;;;;;;;;5028083;28;20111;-56
2024/01/30 06:27:10;;;;;;;23.67;10.25;;;;;;;;;;5031726;28;20092;-56
2024/01/30 06:29:35;;;;;;;28.13;9.63;;;;;;;;;;5029116;28;20116;-56
2024/01/30 06:32:00;;;;;;;24.23;10.37;;;;;;;;;;5031637;28;20045;-59
2024/01/30 06:34:26;;;;;;;26.27;10.40;;;;;;;;;;5032047;28;20214;-56
2024/01/30 06:36:51;;;;;;;26.35;10.65;;;;;;;;;;5030881;28;20581;-57
2024/01/30 06:39:16;;;;;;;21.02;10.02;;;;;;;;;;5032262;28;20025;-57
2024/01/30 06:41:41;;;;;;;23.00;9.80;;;;;;;;;;5031726;28;20032;-58
2024/01/30 06:44:08;;;;;;;22.42;9.30;;;;;;;;;;5031014;28;20057;-56
2024/01/30 06:46:34;;;;;;;22.33;8.88;;;;;;;;;;5027353;28;20098;-55
2024/01/30 06:48:59;;;;;;;23.25;8.57;;;;;;;;;;5030603;28;20044;-56
2024/01/30 06:51:24;;;;;;;22.83;9.50;;;;;;;;;;5032246;28;20033;-55
2024/01/30 06:53:49;;;;;;;23.20;9.03;;;;;;;;;;5030742;28;20477;-55
2024/01/30 06:56:14;;;;;;;22.05;9.63;;;;;;;;;;5029291;28;20075;-56
2024/01/30 06:58:39;;;;;;;24.07;10.53;;;;;;;;;;5030362;28;20045;-55
2024/01/30 07:01:06;;;;;;;27.03;9.73;;;;;;;;;;5026567;28;20068;-55
2024/01/30 07:03:31;;;;;;;22.58;10.05;;;;;;;;;;5014357;28;20025;-56
2024/01/30 07:05:56;;;;;;;23.10;10.55;;;;;;;;;;5023115;28;20025;-56
2024/01/30 07:08:22;;;;;;;24.63;11.02;;;;;;;;;;5035016;28;20045;-55
2024/01/30 07:10:47;;;;;;;23.90;9.57;;;;;;;;;;5029574;28;20531;-56
2024/01/30 07:13:12;;;;;;;23.83;9.75;;;;;;;;;;5033114;28;20013;-57
2024/01/30 07:15:38;;;;;;;22.37;10.00;;;;;;;;;;5040943;28;20052;-55
2024/01/30 07:18:04;;;;;;;25.70;9.77;;;;;;;;;;5042015;28;20477;-56
2024/01/30 07:20:30;;;;;;;23.63;10.52;;;;;;;;;;5041519;28;20040;-57
2024/01/30 07:22:55;;;;;;;23.88;10.55;;;;;;;;;;5039644;28;20357;-56
2024/01/30 07:25:21;;;;;;;20.43;9.07;;;;;;;;;;5029471;28;20040;-55
2024/01/30 07:27:46;;;;;;;23.80;10.18;;;;;;;;;;5026509;28;20046;-56
2024/01/30 07:30:11;;;;;;;23.53;9.93;;;;;;;;;;5021584;28;20578;-56
2024/01/30 07:32:37;;;;;;;26.57;10.10;;;;;;;;;;5028283;28;20036;-56
2024/01/30 07:35:02;;;;;;;22.45;9.05;;;;;;;;;;5031414;28;20099;-56
2024/01/30 07:37:28;;;;;;;21.60;8.55;;;;;;;;;;5029025;28;20116;-56
2024/01/30 07:39:53;;;;;;;22.02;9.57;;;;;;;;;;5031781;28;20055;-56
2024/01/30 07:42:19;;;;;;;23.57;10.10;;;;;;;;;;5030187;28;20030;-56
2024/01/30 07:44:44;;;;;;;22.60;9.47;;;;;;;;;;5028576;28;20029;-55
2024/01/30 07:47:10;;;;;;;23.67;9.45;;;;;;;;;;5030829;28;20413;-56
2024/01/30 07:49:35;;;;;;;25.77;10.13;;;;;;;;;;5032272;28;20100;-57
2024/01/30 07:52:00;;;;;;;26.17;10.02;;;;;;;;;;5032881;28;20571;-56
2024/01/30 07:54:26;;;;;;;23.95;9.35;;;;;;;;;;5033351;28;20032;-57
2024/01/30 07:56:51;;;;;;;18.02;9.15;;;;;;;;;;5033170;28;20025;-56
2024/01/30 07:59:16;;;;;;;24.13;9.50;;;;;;;;;;5031073;28;20444;-55
2024/01/30 08:01:42;;;;;;;20.63;8.23;;;;;;;;;;5031199;28;20499;-56
2024/01/30 08:04:07;;;;;;;21.23;8.93;;;;;;;;;;5033353;28;20440;-56
2024/01/30 08:06:32;;;;;;;22.73;10.02;;;;;;;;;;5032481;28;20022;-56
2024/01/30 08:08:59;;;;;;;21.83;9.45;;;;;;;;;;5032650;28;20026;-56
2024/01/30 08:11:26;;;;;;;20.48;9.68;;;;;;;;;;5031212;28;20029;-56
2024/01/30 08:13:51;;;;;;;;;;;;;;;;;;5029839;28;20033;-56
2024/01/30 08:16:16;;;;;;;21.13;9.10;;;;;;;;;;5031460;28;19970;-56
2024/01/30 08:18:41;;;;;;;21.95;9.90;;;;;;;;;;5031610;28;20056;-56
2024/01/30 08:21:06;;;;;;;25.17;10.57;;;;;;;;;;5031356;28;20037;-56
2024/01/30 08:23:32;;;;;;;23.33;9.40;;;;;;;;;;5032732;28;20405;-56
2024/01/30 08:25:57;;;;;;;21.50;9.37;;;;;;;;;;5031196;28;20022;-55
2024/01/30 08:28:22;;;;;;;18.07;8.40;;;;;;;;;;5030466;28;20024;-57
2024/01/30 08:30:47;;;;;;;18.63;8.40;;;;;;;;;;5031274;28;20029;-56
2024/01/30 08:33:13;;;;;;;24.60;9.63;;;;;;;;;;5031760;28;20117;-57
2024/01/30 08:35:38;;;;;;;24.05;9.40;;;;;;;;;;5035676;28;20583;-57
2024/01/30 08:38:03;;;;;;;22.38;9.50;;;;;;;;;;5035439;28;20510;-57
2024/01/30 08:40:29;;;;;;;19.03;9.37;;;;;;;;;;5034127;28;20021;-56
2024/01/30 08:42:54;;;;;;;23.63;9.55;;;;;;;;;;5034275;28;20463;-56
2024/01/30 08:45:19;;;;;;;19.77;9.77;;;;;;;;;;5034954;28;20565;-56
2024/01/30 08:47:45;;;;;;;21.55;9.60;;;;;;;;;;5035084;28;20051;-56
2024/01/30 08:50:11;;;;;;;23.60;9.33;;;;;;;;;;5034495;28;20025;-56
2024/01/30 08:52:36;;;;;;;19.60;8.68;;;;;;;;;;5034428;28;20025;-56
2024/01/30 08:55:01;;;;;;;20.50;9.03;;;;;;;;;;5032376;28;20033;-56
2024/01/30 08:57:28;;;;;;;20.93;9.43;;;;;;;;;;5031916;28;20025;-56
2024/01/30 08:59:53;;;;;;;20.38;9.05;;;;;;;;;;5033434;28;20477;-57
2024/01/30 09:02:19;;;;;;;21.90;9.40;;;;;;;;;;5033617;28;20033;-56
2024/01/30 09:04:44;;;;;;;21.33;8.60;;;;;;;;;;5034104;28;20426;-56
2024/01/30 09:07:09;;;;;;;22.85;9.27;;;;;;;;;;5034192;28;20027;-56
2024/01/30 09:09:35;;;;;;;21.95;8.93;;;;;;;;;;5032677;28;20029;-57
2024/01/30 09:12:04;;;;;;;21.38;9.30;;;;;;;;;;5032832;28;20034;-57
2024/01/30 09:14:29;;;;;;;18.27;9.35;;;;;;;;;;5033160;28;20473;-57
2024/01/30 09:16:56;;;;;;;21.57;8.50;;;;;;;;;;5034115;28;20040;-57
2024/01/30 09:19:21;;;;;;;19.08;9.20;;;;;;;;;;5027920;28;20022;-57
2024/01/30 09:21:46;;;;;;;21.42;9.02;;;;;;;;;;5032684;28;20030;-57
2024/01/30 09:24:11;;;;;;;20.55;8.93;;;;;;;;;;5031859;28;20041;-57
2024/01/30 09:26:37;;;;;;;19.17;8.85;;;;;;;;;;5024456;28;20054;-56
2024/01/30 09:29:02;;;;;;;20.17;9.18;;;;;;;;;;5013533;28;20055;-57
2024/01/30 09:31:28;;;;;;;20.15;9.50;;;;;;;;;;5013121;28;20022;-57
2024/01/30 09:33:53;;;;;;;24.42;9.43;;;;;;;;;;5019870;28;20022;-57
2024/01/30 09:36:19;;;;;;;19.37;9.23;;;;;;;;;;5034318;28;20017;-57
2024/01/30 09:38:44;;;;;;;20.40;9.45;;;;;;;;;;5031628;28;20038;-57
2024/01/30 09:41:13;;;;;;;19.50;8.17;;;;;;;;;;5031734;28;20036;-57
2024/01/30 09:43:39;;;;;;;21.90;9.00;;;;;;;;;;5030868;28;20025;-56
2024/01/30 09:46:05;;;;;;;22.55;9.23;;;;;;;;;;5033094;28;20013;-57
2024/01/30 09:48:30;;;;;;;20.75;8.85;;;;;;;;;;5033526;28;20492;-58
2024/01/30 09:50:56;;;;;;;20.37;8.73;;;;;;;;;;5032151;28;20022;-56
2024/01/30 09:53:22;;;;;;;20.27;8.02;;;;;;;;;;5031265;28;20456;-57
2024/01/30 09:55:47;;;;;;;18.40;8.43;;;;;;;;;;5032458;28;20029;-56
2024/01/30 09:58:13;;;;;;;21.02;8.77;;;;;;;;;;5031815;28;20592;-56
2024/01/30 10:00:38;;;;;;;21.38;8.85;;;;;;;;;;5032978;28;20485;-56
2024/01/30 10:03:05;;;;;;;17.23;7.75;;;;;;;;;;5033323;28;20470;-57
2024/01/30 10:05:31;;;;;;;18.35;8.60;;;;;;;;;;5033319;28;20025;-56
2024/01/30 10:07:56;;;;;;;18.65;8.68;;;;;;;;;;5032283;28;20109;-57
2024/01/30 10:10:23;;;;;;;15.63;7.50;;;;;;;;;;5031103;28;20116;-56
2024/01/30 10:12:50;;;;;;;19.73;8.18;;;;;;;;;;5032466;28;20021;-57
2024/01/30 10:15:17;;;;;;;18.50;8.00;;;;;;;;;;5033077;28;20021;-57
2024/01/30 10:17:44;;;;;;;18.35;8.25;;;;;;;;;;5032409;28;20025;-58
2024/01/30 10:20:09;;;;;;;16.30;8.00;;;;;;;;;;5029982;28;20099;-56
2024/01/30 10:22:34;;;;;;;18.05;7.82;;;;;;;;;;5032346;28;20469;-56
2024/01/30 10:25:01;;;;;;;16.67;7.53;;;;;;;;;;5030125;28;20040;-56
2024/01/30 10:27:26;;;;;;;15.35;7.90;;;;;;;;;;5027574;28;20040;-56
2024/01/30 10:29:53;;;;;;;15.38;6.88;;;;;;;;;;5032689;28;20393;-56
2024/01/30 10:32:19;;;;;;;17.40;7.00;;;;;;;;;;5032110;28;20017;-56
2024/01/30 10:34:44;;;;;;;16.25;7.78;;;;;;;;;;5031797;28;20018;-57
2024/01/30 10:37:12;;;;;;;16.37;6.90;;;;;;;;;;5027173;28;20033;-57
2024/01/30 10:39:38;;;;;;;18.42;7.38;;;;;;;;;;5026908;28;20051;-57
2024/01/30 10:42:05;;;;;;;16.50;7.30;;;;;;;;;;5032285;28;20026;-58
2024/01/30 10:44:38;;;;;;;16.33;7.75;;;;;;;;;;5031970;28;20052;-56
2024/01/30 10:47:06;;;;;;;16.02;7.75;;;;;;;;;;5031964;28;20036;-56
2024/01/30 10:49:32;;;;;;;17.20;7.93;;;;;;;;;;5028949;28;20388;-57
2024/01/30 10:51:59;;;;;;;20.00;8.65;;;;;;;;;;5031728;28;20030;-57
2024/01/30 10:54:24;;;;;;;18.92;7.65;;;;;;;;;;5031981;28;20021;-56
2024/01/30 10:56:50;;;;;;;18.60;7.68;;;;;;;;;;5031681;28;20032;-57
2024/01/30 10:59:15;;;;;;;19.10;8.53;;;;;;;;;;5032108;28;20021;-57
2024/01/30 11:01:41;;;;;;;17.75;7.25;;;;;;;;;;5028908;28;20938;-57
2024/01/30 11:04:07;;;;;;;17.45;8.57;;;;;;;;;;5023356;28;20025;-57
2024/01/30 11:06:40;;;;;;;17.67;7.90;;;;;;;;;;5029678;28;20025;-56
2024/01/30 11:09:09;;;;;;;;;;;;;;;;;;5031121;28;20511;-57
2024/01/30 11:11:50;;;;;;;18.52;7.78;;;;;;;;;;5034553;28;19904;-57
2024/01/30 11:14:16;;;;;;;17.77;7.95;;;;;;;;;;5036511;28;20048;-57
2024/01/30 11:16:41;;;;;;;19.20;8.43;;;;;;;;;;5033139;28;20025;-58
2024/01/30 11:19:10;;;;;;;16.43;7.60;;;;;;;;;;5037725;28;20045;-56
2024/01/30 11:21:41;;;;;;;17.08;7.72;;;;;;;;;;5039743;28;20052;-57
2024/01/30 11:24:07;;;;;;;19.80;8.77;;;;;;;;;;5041845;28;20030;-58
2024/01/30 11:26:32;;;;;;;16.85;8.40;;;;;;;;;;5043373;28;20013;-58
2024/01/30 11:28:57;;;;;;;19.35;8.02;;;;;;;;;;5046594;28;20022;-57
2024/01/30 11:31:22;;;;;;;18.63;7.97;;;;;;;;;;5038402;28;20029;-57
2024/01/30 11:33:52;;;;;;;16.15;7.28;;;;;;;;;;5042216;28;20108;-57
2024/01/30 11:36:17;;;;;;;15.60;8.25;;;;;;;;;;5046394;28;20118;-57
2024/01/30 11:38:45;;;;;;;19.13;8.63;;;;;;;;;;5049046;28;20013;-57
2024/01/30 11:41:11;;;;;;;18.90;8.43;;;;;;;;;;5047583;28;20022;-57
2024/01/30 11:43:37;;;;;;;17.40;8.20;;;;;;;;;;5039394;28;20021;-56
2024/01/30 11:46:02;;;;;;;19.83;8.65;;;;;;;;;;5030354;28;20076;-55
2024/01/30 11:48:27;;;;;;;18.03;8.37;;;;;;;;;;5032346;28;20029;-56
2024/01/30 11:50:54;;;;;;;18.03;9.57;;;;;;;;;;5031858;28;20095;-58
2024/01/30 11:53:19;;;;;;;20.02;8.73;;;;;;;;;;5031316;28;20022;-58
2024/01/30 11:55:49;;;;;;;17.03;8.30;;;;;;;;;;5027147;28;20036;-57
2024/01/30 11:58:14;;;;;;;19.40;8.20;;;;;;;;;;5031202;28;20018;-56
2024/01/30 12:00:39;;;;;;;19.08;8.93;;;;;;;;;;5023344;28;20014;-55
2024/01/30 12:03:06;;;;;;;17.20;7.63;;;;;;;;;;5030226;28;20087;-57
2024/01/30 12:05:31;;;;;;;18.27;8.55;;;;;;;;;;5031104;28;20018;-56
2024/01/30 12:07:59;;;;;;;20.80;8.88;;;;;;;;;;5030121;28;20030;-58
2024/01/30 12:10:25;;;;;;;19.52;8.70;;;;;;;;;;5026523;28;20025;-56
2024/01/30 12:12:50;;;;;;;19.25;9.10;;;;;;;;;;5036596;28;20013;-57
2024/01/30 12:15:16;;;;;;;19.57;8.93;;;;;;;;;;5033555;28;20029;-59
2024/01/30 12:17:41;;;;;;;20.25;9.63;;;;;;;;;;5033788;28;20033;-56
2024/01/30 12:20:11;;;;;;;20.43;9.10;;;;;;;;;;5037423;28;20025;-57
2024/01/30 12:22:38;;;;;;;20.35;9.02;;;;;;;;;;5028198;28;20510;-56
2024/01/30 12:25:04;;;;;;;22.42;10.15;;;;;;;;;;5030797;28;20086;-57
2024/01/30 12:27:30;;;;;;;20.95;9.57;;;;;;;;;;5031001;28;20021;-57
2024/01/30 12:29:58;;;;;;;21.65;9.30;;;;;;;;;;5041300;28;20013;-57
2024/01/30 12:32:24;;;;;;;20.58;8.98;;;;;;;;;;5035215;28;20017;-58
2024/01/30 12:34:49;;;;;;;21.30;8.97;;;;;;;;;;5028217;28;20363;-56
2024/01/30 12:37:19;;;;;;;23.75;9.13;;;;;;;;;;5035571;28;20071;-56
2024/01/30 12:39:45;;;;;;;24.67;9.75;;;;;;;;;;5039242;28;20623;-57
2024/01/30 12:42:11;;;;;;;22.48;9.45;;;;;;;;;;5027744;28;20045;-57
2024/01/30 12:44:36;;;;;;;22.52;9.73;;;;;;;;;;5028345;28;20025;-57
2024/01/30 12:47:04;;;;;;;25.13;10.23;;;;;;;;;;5033713;28;20025;-57
2024/01/30 12:49:29;;;;;;;20.02;8.85;;;;;;;;;;5033852;28;20025;-56
2024/01/30 12:51:54;;;;;;;21.52;9.57;;;;;;;;;;5033382;28;20020;-57
2024/01/30 12:54:19;;;;;;;19.95;9.25;;;;;;;;;;5033623;28;20033;-56
2024/01/30 12:56:44;;;;;;;21.03;8.70;;;;;;;;;;5031935;28;20421;-57
2024/01/30 12:59:10;;;;;;;21.03;9.30;;;;;;;;;;5033660;28;20627;-56
2024/01/30 13:01:35;;;;;;;18.93;9.10;;;;;;;;;;5035130;28;20017;-57
2024/01/30 13:04:00;;;;;;;19.07;8.27;;;;;;;;;;5033946;28;20061;-58
2024/01/30 13:06:25;;;;;;;19.10;9.50;;;;;;;;;;5033585;28;20105;-57
2024/01/30 13:08:50;;;;;;;21.35;9.52;;;;;;;;;;5033399;28;20207;-57
2024/01/30 13:11:15;;;;;;;22.23;9.63;;;;;;;;;;5031838;28;20018;-55
2024/01/30 13:13:40;;;;;;;22.90;9.40;;;;;;;;;;5033184;28;20073;-57
2024/01/30 13:16:06;;;;;;;23.85;9.75;;;;;;;;;;5025416;28;20025;-56
2024/01/30 13:18:31;;;;;;;22.87;10.30;;;;;;;;;;5033913;28;20079;-57
2024/01/30 13:20:56;;;;;;;20.83;10.17;;;;;;;;;;5033601;28;20501;-57
2024/01/30 13:23:21;;;;;;;22.33;9.85;;;;;;;;;;5028017;28;20033;-57
2024/01/30 13:25:46;;;;;;;21.40;9.75;;;;;;;;;;5034054;28;20120;-57
2024/01/30 13:28:13;;;;;;;22.60;9.90;;;;;;;;;;5027189;28;20018;-56
2024/01/30 13:30:39;;;;;;;23.50;10.27;;;;;;;;;;5042105;28;20033;-56
2024/01/30 13:33:04;;;;;;;22.23;9.20;;;;;;;;;;5026254;28;20022;-56
2024/01/30 13:35:29;;;;;;;22.40;9.10;;;;;;;;;;5028639;28;20363;-56
2024/01/30 13:37:55;;;;;;;26.73;10.60;;;;;;;;;;5031813;28;20025;-57
2024/01/30 13:40:22;;;;;;;23.02;9.88;;;;;;;;;;5025956;28;20046;-56
2024/01/30 13:42:47;;;;;;;25.13;10.00;;;;;;;;;;5030203;28;20025;-56
2024/01/30 13:45:12;;;;;;;26.02;10.90;;;;;;;;;;5033224;28;20037;-58
2024/01/30 13:47:38;;;;;;;23.57;10.53;;;;;;;;;;5033344;28;20079;-56
2024/01/30 13:50:03;;;;;;;25.00;10.67;;;;;;;;;;5031615;28;20080;-57
2024/01/30 13:52:28;;;;;;;21.47;9.77;;;;;;;;;;5025310;28;20022;-56
2024/01/30 13:54:53;;;;;;;23.93;10.60;;;;;;;;;;5033278;28;20021;-57
2024/01/30 13:57:18;;;;;;;24.60;10.82;;;;;;;;;;5030330;28;20038;-57
2024/01/30 13:59:44;;;;;;;23.40;9.82;;;;;;;;;;5025914;28;20394;-57
2024/01/30 14:02:10;;;;;;;23.40;10.97;;;;;;;;;;5030684;28;20109;-56
2024/01/30 14:04:37;;;;;;;25.13;10.20;;;;;;;;;;5036209;28;20398;-56
2024/01/30 14:07:02;;;;;;;;;;;;;;;;;;5031127;28;20021;-58
2024/01/30 14:09:27;;;;;;;23.57;10.83;;;;;;;;;;5029540;28;19925;-56
2024/01/30 14:11:52;;;;;;;24.30;10.70;;;;;;;;;;5033607;28;20450;-58
2024/01/30 14:14:18;;;;;;;26.75;10.38;;;;;;;;;;5019353;28;20038;-56
2024/01/30 14:16:44;;;;;;;24.17;10.45;;;;;;;;;;5029650;28;20089;-58